createdAt,value
2018-03-22T00:01:16.864Z,19.80
2018-03-22T00:03:45.775Z,20.70
2018-03-22T00:06:14.733Z,24.87
2018-03-22T00:08:43.980Z,21.53
2018-03-22T00:11:12.936Z,23.20
2018-03-22T00:13:41.922Z,24.13
2018-03-22T00:16:11.280Z,25.40
2018-03-22T00:18:40.290Z,29.53
2018-03-22T00:21:09.253Z,18.70
2018-03-22T00:23:39.488Z,22.30
2018-03-22T00:26:08.380Z,23.77
2018-03-22T00:28:37.601Z,15.70
2018-03-22T00:31:07.918Z,15.53
2018-03-22T00:33:36.809Z,17.40
2018-03-22T00:36:06.554Z,17.47
2018-03-22T00:38:35.804Z,23.07
2018-03-22T00:41:05.810Z,14.77
2018-03-22T00:43:34.694Z,16.73
2018-03-22T00:46:04.985Z,17.00
2018-03-22T00:48:33.920Z,11.87
2018-03-22T00:51:03.230Z,11.47
2018-03-22T00:53:32.105Z,13.63
2018-03-22T00:56:01.942Z,15.37
2018-03-22T00:58:31.171Z,23.33
2018-03-22T01:01:00.164Z,17.20
2018-03-22T01:03:29.030Z,15.67
2018-03-22T01:05:57.884Z,12.00
2018-03-22T01:08:27.094Z,16.37
2018-03-22T01:10:56.291Z,17.03
2018-03-22T01:13:25.220Z,22.10
2018-03-22T01:15:54.211Z,18.60
2018-03-22T01:18:23.401Z,19.77
2018-03-22T01:20:52.320Z,17.13
2018-03-22T01:23:21.214Z,16.20
2018-03-22T01:25:50.412Z,10.50
2018-03-22T01:28:19.327Z,11.10
2018-03-22T01:30:48.212Z,15.00
2018-03-22T01:33:17.413Z,15.63
2018-03-22T01:35:46.326Z,16.13
2018-03-22T01:38:15.251Z,17.20
2018-03-22T01:40:44.507Z,12.33
2018-03-22T01:43:13.395Z,10.97
2018-03-22T01:45:42.307Z,12.80
2018-03-22T01:48:11.502Z,14.53
2018-03-22T01:50:40.389Z,13.63
2018-03-22T01:53:14.868Z,19.17
2018-03-22T01:55:44.067Z,12.57
2018-03-22T01:58:13.095Z,14.40
2018-03-22T02:00:42.011Z,18.10
2018-03-22T02:03:11.188Z,18.50
2018-03-22T02:05:40.050Z,14.40
2018-03-22T02:08:08.935Z,13.30
2018-03-22T02:10:38.644Z,8.73
2018-03-22T02:13:07.578Z,13.20
2018-03-22T02:15:36.442Z,12.23
2018-03-22T02:18:06.757Z,15.93
2018-03-22T02:20:36.020Z,13.23
2018-03-22T02:23:04.943Z,17.60
2018-03-22T02:25:34.141Z,14.77
2018-03-22T02:28:04.627Z,13.77
2018-03-22T02:30:33.556Z,14.53
2018-03-22T02:33:03.063Z,13.00
2018-03-22T02:35:32.434Z,17.57
2018-03-22T02:38:02.987Z,19.73
2018-03-22T02:40:32.146Z,17.03
2018-03-22T02:43:01.139Z,13.77
2018-03-22T02:45:30.023Z,17.00
2018-03-22T02:47:59.238Z,16.60
2018-03-22T02:50:28.155Z,23.97
2018-03-22T02:52:57.096Z,13.03
2018-03-22T02:55:26.304Z,14.70
2018-03-22T02:57:55.305Z,15.00
2018-03-22T03:00:24.263Z,15.70
2018-03-22T03:02:53.973Z,16.80
2018-03-22T03:05:22.843Z,15.00
2018-03-22T03:07:51.751Z,22.10
2018-03-22T03:10:21.225Z,20.40
2018-03-22T03:12:50.202Z,12.90
2018-03-22T03:15:19.158Z,16.07
2018-03-22T03:17:48.431Z,16.97
2018-03-22T03:20:17.399Z,18.27
2018-03-22T03:22:46.291Z,22.97
2018-03-22T03:25:15.736Z,15.63
2018-03-22T03:27:44.661Z,22.53
2018-03-22T03:30:13.548Z,16.47
2018-03-22T03:32:43.731Z,20.03
2018-03-22T03:35:12.615Z,23.00
2018-03-22T03:37:41.464Z,16.50
2018-03-22T03:40:10.611Z,20.63
2018-03-22T03:42:39.523Z,17.97
2018-03-22T03:45:08.397Z,12.67
2018-03-22T03:47:38.635Z,14.00
2018-03-22T03:50:07.512Z,15.73
2018-03-22T03:52:36.382Z,14.60
2018-03-22T03:55:06.691Z,14.33
2018-03-22T03:57:35.537Z,17.63
2018-03-22T04:00:06.554Z,15.17
2018-03-22T04:02:35.721Z,12.83
2018-03-22T04:05:05.015Z,15.67
2018-03-22T04:07:33.868Z,16.40
2018-03-22T04:10:04.426Z,14.13
2018-03-22T04:12:33.335Z,19.70
2018-03-22T04:15:02.614Z,13.73
2018-03-22T04:17:31.815Z,13.57
2018-03-22T04:20:00.840Z,19.10
2018-03-22T04:22:29.768Z,19.93
2018-03-22T04:25:00.005Z,12.07
2018-03-22T04:27:28.857Z,14.27
2018-03-22T04:29:57.783Z,12.17
2018-03-22T04:32:26.927Z,14.67
2018-03-22T04:34:55.868Z,11.33
2018-03-22T04:37:24.731Z,12.10
2018-03-22T04:39:53.924Z,12.33
2018-03-22T04:42:22.995Z,10.77
2018-03-22T04:44:51.870Z,15.10
2018-03-22T04:47:21.042Z,12.37
2018-03-22T04:49:49.913Z,23.60
2018-03-22T04:52:18.777Z,14.30
2018-03-22T04:54:48.298Z,17.93
2018-03-22T04:57:47.271Z,12.20
2018-03-22T05:00:16.460Z,10.77
2018-03-22T05:02:45.434Z,21.37
2018-03-22T05:05:14.434Z,12.10
2018-03-22T05:07:43.595Z,15.70
2018-03-22T05:10:12.488Z,15.30
2018-03-22T05:12:41.417Z,12.97
2018-03-22T05:15:11.435Z,12.73
2018-03-22T05:17:40.997Z,12.23
2018-03-22T05:20:09.844Z,14.17
2018-03-22T05:22:38.780Z,15.33
2018-03-22T05:25:07.713Z,14.70
2018-03-22T05:27:36.925Z,19.60
2018-03-22T05:30:06.697Z,14.60
2018-03-22T05:32:35.588Z,16.47
2018-03-22T05:35:05.622Z,11.53
2018-03-22T05:37:34.502Z,19.50
2018-03-22T05:40:04.859Z,17.70
2018-03-22T05:42:34.154Z,13.00
2018-03-22T05:45:03.921Z,12.37
2018-03-22T05:47:32.932Z,16.83
2018-03-22T05:50:04.023Z,20.67
2018-03-22T05:52:33.034Z,98.87
2018-03-22T05:55:03.617Z,18.47
2018-03-22T05:57:32.821Z,17.80
2018-03-22T06:00:03.050Z,14.37
2018-03-22T06:02:32.024Z,13.93
2018-03-22T06:05:02.058Z,19.67
2018-03-22T06:07:31.427Z,19.00
2018-03-22T06:10:00.714Z,17.73
2018-03-22T06:12:30.957Z,17.67
2018-03-22T06:14:59.978Z,13.00
2018-03-22T06:17:28.843Z,24.83
2018-03-22T06:19:58.106Z,15.90
2018-03-22T06:22:27.091Z,13.87
2018-03-22T06:24:56.378Z,15.13
2018-03-22T06:27:25.640Z,14.30
2018-03-22T06:29:54.613Z,16.23
2018-03-22T06:32:27.658Z,18.43
2018-03-22T06:34:57.022Z,18.40
2018-03-22T06:37:26.001Z,18.20
2018-03-22T06:39:55.070Z,19.70
2018-03-22T06:42:24.358Z,15.67
2018-03-22T06:44:53.356Z,18.47
2018-03-22T06:47:22.267Z,13.70
2018-03-22T06:49:51.540Z,16.30
2018-03-22T06:52:20.516Z,18.13
2018-03-22T06:54:49.423Z,17.70
2018-03-22T06:57:22.254Z,17.40
2018-03-22T06:59:51.579Z,17.03
2018-03-22T07:02:20.849Z,35.03
2018-03-22T07:04:50.047Z,17.40
2018-03-22T07:07:18.999Z,16.07
2018-03-22T07:09:47.990Z,14.43
2018-03-22T07:12:17.495Z,17.90
2018-03-22T07:14:46.395Z,14.50
2018-03-22T07:17:15.611Z,19.30
2018-03-22T07:19:44.888Z,21.20
2018-03-22T07:22:13.965Z,17.20
2018-03-22T07:24:42.968Z,16.30
2018-03-22T07:27:12.889Z,21.20
2018-03-22T07:29:41.867Z,16.80
2018-03-22T07:32:10.818Z,16.70
2018-03-22T07:34:40.044Z,17.73
2018-03-22T07:37:09.000Z,23.40
2018-03-22T07:39:37.994Z,18.73
2018-03-22T07:42:07.370Z,17.87
2018-03-22T07:44:40.366Z,15.00
2018-03-22T07:47:09.456Z,17.07
2018-03-22T07:49:38.928Z,17.67
2018-03-22T07:52:07.841Z,16.97
2018-03-22T07:54:36.822Z,17.73
2018-03-22T07:57:06.533Z,14.83
2018-03-22T07:59:35.609Z,13.80
2018-03-22T08:02:05.864Z,14.73
2018-03-22T08:04:35.150Z,17.67
2018-03-22T08:07:05.745Z,23.83
2018-03-22T08:09:34.937Z,16.23
2018-03-22T08:12:05.171Z,15.63
2018-03-22T08:14:34.113Z,18.47
2018-03-22T08:17:04.091Z,19.83
2018-03-22T08:19:33.392Z,18.77
2018-03-22T08:22:05.102Z,19.87
2018-03-22T08:24:34.188Z,23.43
2018-03-22T08:27:03.749Z,19.37
2018-03-22T08:29:32.748Z,18.80
2018-03-22T08:32:02.844Z,16.10
2018-03-22T08:34:32.126Z,18.63
2018-03-22T08:37:01.266Z,12.13
2018-03-22T08:39:30.489Z,12.80
2018-03-22T08:42:00.088Z,20.87
2018-03-22T08:44:29.055Z,22.60
2018-03-22T08:46:57.974Z,15.50
2018-03-22T08:49:27.221Z,12.83
2018-03-22T08:51:56.200Z,12.30
2018-03-22T08:54:25.226Z,17.23
2018-03-22T08:56:54.538Z,19.47
2018-03-22T08:59:23.584Z,17.03
2018-03-22T09:01:53.506Z,21.67
2018-03-22T09:04:22.650Z,18.37
2018-03-22T09:06:51.563Z,20.10
2018-03-22T09:09:20.481Z,21.17
2018-03-22T09:11:49.443Z,17.20
2018-03-22T09:14:18.358Z,23.37
2018-03-22T09:16:47.227Z,20.50
2018-03-22T09:19:16.462Z,16.30
2018-03-22T09:21:45.498Z,24.93
2018-03-22T09:24:14.432Z,15.37
2018-03-22T09:26:47.693Z,17.57
2018-03-22T09:29:16.791Z,32.47
2018-03-22T09:31:45.820Z,21.87
2018-03-22T09:34:15.384Z,28.27
2018-03-22T09:36:44.515Z,32.60
2018-03-22T09:39:13.628Z,27.57
2018-03-22T09:41:42.965Z,23.60
2018-03-22T09:44:11.936Z,23.57
2018-03-22T09:46:41.453Z,35.70
2018-03-22T09:49:11.068Z,22.77
2018-03-22T09:51:40.032Z,27.10
2018-03-22T09:54:09.005Z,26.40
2018-03-22T09:56:38.266Z,25.87
2018-03-22T09:59:07.270Z,24.43
2018-03-22T10:01:36.224Z,36.07
2018-03-22T10:04:06.079Z,22.87
2018-03-22T10:06:34.957Z,27.40
2018-03-22T10:09:04.545Z,26.80
2018-03-22T10:11:34.835Z,39.10
2018-03-22T10:14:05.594Z,28.47
2018-03-22T10:16:34.562Z,29.03
2018-03-22T10:19:05.195Z,29.83
2018-03-22T10:21:34.219Z,22.97
2018-03-22T10:24:04.084Z,26.37
2018-03-22T10:26:33.315Z,27.30
2018-03-22T10:29:03.218Z,30.53
2018-03-22T10:31:32.144Z,25.23
2018-03-22T10:34:01.628Z,25.93
2018-03-22T10:36:30.577Z,30.70
2018-03-22T10:38:59.489Z,29.27
2018-03-22T10:41:28.728Z,29.40
2018-03-22T10:43:57.665Z,34.77
2018-03-22T10:46:26.987Z,39.13
2018-03-22T10:48:56.294Z,39.70
2018-03-22T10:51:25.659Z,35.10
2018-03-22T10:53:54.593Z,35.80
2018-03-22T10:56:23.838Z,36.53
2018-03-22T10:58:52.808Z,35.50
2018-03-22T11:01:25.830Z,43.13
2018-03-22T11:03:55.060Z,35.87
2018-03-22T11:06:23.955Z,34.70
2018-03-22T11:08:52.845Z,37.77
2018-03-22T11:11:21.812Z,33.83
2018-03-22T11:13:50.815Z,34.43
2018-03-22T11:16:20.342Z,33.07
2018-03-22T11:18:49.325Z,36.50
2018-03-22T11:21:18.297Z,40.43
2018-03-22T11:23:47.186Z,42.57
2018-03-22T11:26:16.096Z,37.53
2018-03-22T11:28:45.315Z,37.63
2018-03-22T11:31:14.902Z,42.50
2018-03-22T11:33:43.883Z,45.13
2018-03-22T11:36:13.175Z,39.30
2018-03-22T11:38:42.121Z,38.83
2018-03-22T11:41:11.090Z,35.87
2018-03-22T11:43:40.358Z,38.40
2018-03-22T11:46:09.597Z,47.30
2018-03-22T11:48:39.394Z,34.83
2018-03-22T11:51:08.383Z,41.33
2018-03-22T11:53:37.282Z,39.70
2018-03-22T11:56:06.276Z,38.73
2018-03-22T11:58:35.568Z,46.00
2018-03-22T12:01:05.193Z,54.13
2018-03-22T12:03:34.128Z,41.10
2018-03-22T12:06:04.972Z,39.50
2018-03-22T12:08:33.892Z,38.93
2018-03-22T12:11:03.617Z,43.27
2018-03-22T12:13:32.917Z,39.73
2018-03-22T12:16:03.722Z,40.87
2018-03-22T12:18:32.602Z,41.83
2018-03-22T12:21:02.934Z,39.50
2018-03-22T12:23:34.803Z,38.00
2018-03-22T12:26:08.348Z,39.90
2018-03-22T12:28:37.655Z,42.87
2018-03-22T12:31:06.709Z,39.27
2018-03-22T12:33:35.790Z,35.07
2018-03-22T12:36:05.864Z,47.67
2018-03-22T12:38:34.783Z,42.53
2018-03-22T12:41:04.298Z,39.13
2018-03-22T12:43:34.594Z,42.17
2018-03-22T12:46:04.675Z,29.50
2018-03-22T12:48:33.619Z,27.33
2018-03-22T12:51:03.606Z,35.37
2018-03-22T12:53:32.548Z,31.30
2018-03-22T12:56:01.779Z,34.30
2018-03-22T12:58:31.027Z,34.83
2018-03-22T13:01:00.081Z,39.00
2018-03-22T13:03:29.019Z,35.80
2018-03-22T13:05:58.344Z,37.00
2018-03-22T13:08:27.333Z,28.90
2018-03-22T13:10:56.324Z,29.30
2018-03-22T13:13:25.588Z,35.33
2018-03-22T13:15:54.535Z,30.30
2018-03-22T13:18:23.609Z,21.37
2018-03-22T13:20:53.276Z,20.27
2018-03-22T13:23:22.601Z,20.60
2018-03-22T13:25:51.598Z,15.80
2018-03-22T13:28:20.916Z,15.67
2018-03-22T13:30:49.928Z,17.80
2018-03-22T13:33:19.062Z,15.50
2018-03-22T13:35:49.488Z,16.43
2018-03-22T13:38:18.630Z,14.17
2018-03-22T13:40:47.563Z,16.63
2018-03-22T13:43:17.394Z,15.07
2018-03-22T13:45:46.392Z,20.33
2018-03-22T13:48:15.358Z,14.40
2018-03-22T13:50:44.589Z,21.80
2018-03-22T13:53:13.489Z,16.77
2018-03-22T13:55:42.429Z,19.07
2018-03-22T13:58:12.080Z,16.80
2018-03-22T14:00:41.011Z,24.07
2018-03-22T14:03:10.017Z,21.33
2018-03-22T14:05:39.321Z,21.33
2018-03-22T14:08:10.096Z,23.40
2018-03-22T14:10:39.095Z,25.10
2018-03-22T14:13:08.721Z,24.20
2018-03-22T14:15:37.665Z,26.23
2018-03-22T14:18:06.594Z,21.97
2018-03-22T14:20:35.840Z,27.30
2018-03-22T14:23:05.554Z,29.33
2018-03-22T14:25:34.573Z,32.50
2018-03-22T14:28:07.269Z,23.13
2018-03-22T14:30:36.312Z,22.80
2018-03-22T14:33:05.420Z,30.83
2018-03-22T14:35:34.659Z,28.57
2018-03-22T14:38:05.420Z,22.27
2018-03-22T14:40:34.464Z,23.40
2018-03-22T14:43:04.619Z,17.77
2018-03-22T14:45:33.594Z,16.03
2018-03-22T14:48:03.658Z,20.27
2018-03-22T14:50:33.185Z,15.17
2018-03-22T14:53:03.044Z,18.37
2018-03-22T14:55:32.126Z,20.37
2018-03-22T14:58:01.351Z,16.57
2018-03-22T15:00:35.556Z,21.00
2018-03-22T15:03:14.448Z,19.10
2018-03-22T15:05:43.749Z,16.97
2018-03-22T15:08:13.091Z,19.67
2018-03-22T15:10:42.381Z,20.97
2018-03-22T15:13:13.136Z,21.23
2018-03-22T15:15:42.629Z,26.30
2018-03-22T15:18:11.879Z,23.67
2018-03-22T15:23:09.011Z,19.67
2018-03-22T15:25:38.040Z,22.80
2018-03-22T15:28:06.974Z,19.53
2018-03-22T15:30:37.380Z,18.10
2018-03-22T15:33:06.290Z,24.83
2018-03-22T15:35:35.289Z,23.30
2018-03-22T15:38:05.624Z,24.17
2018-03-22T15:40:34.718Z,19.97
2018-03-22T15:43:04.760Z,22.13
2018-03-22T15:45:34.265Z,23.60
2018-03-22T15:48:04.358Z,27.90
2018-03-22T15:50:33.411Z,25.00
2018-03-22T15:53:03.207Z,22.13
2018-03-22T15:55:32.113Z,30.90
2018-03-22T15:58:02.613Z,30.20
2018-03-22T16:00:31.857Z,23.37
2018-03-22T16:03:02.445Z,26.63
2018-03-22T16:05:31.400Z,36.47
2018-03-22T16:08:00.554Z,30.67
2018-03-22T16:10:29.451Z,26.43
2018-03-22T16:12:58.407Z,27.87
2018-03-22T16:15:27.596Z,29.00
2018-03-22T16:17:56.602Z,25.37
2018-03-22T16:20:25.532Z,26.67
2018-03-22T16:22:54.899Z,27.40
2018-03-22T16:25:23.814Z,28.20
2018-03-22T16:27:52.919Z,35.10
2018-03-22T16:30:22.597Z,32.60
2018-03-22T16:32:51.651Z,30.70
2018-03-22T16:35:21.143Z,31.63
2018-03-22T16:37:51.550Z,34.23
2018-03-22T16:40:20.586Z,25.10
2018-03-22T16:42:49.515Z,20.23
2018-03-22T16:45:18.899Z,21.00
2018-03-22T16:47:47.823Z,16.67
2018-03-22T16:50:17.170Z,15.80
2018-03-22T16:52:46.617Z,15.00
2018-03-22T16:55:15.904Z,17.50
2018-03-22T16:57:44.836Z,15.20
2018-03-22T17:00:14.689Z,14.40
2018-03-22T17:02:43.563Z,10.43
2018-03-22T17:05:12.560Z,11.10
2018-03-22T17:07:41.915Z,11.87
2018-03-22T17:10:10.898Z,9.87
2018-03-22T17:15:06.368Z,10.00
2018-03-22T17:17:35.333Z,13.50
2018-03-22T17:20:07.509Z,9.27
2018-03-22T17:22:36.850Z,9.33
2018-03-22T17:25:06.714Z,9.43
2018-03-22T17:27:35.652Z,11.73
2018-03-22T17:30:06.185Z,7.53
2018-03-22T17:32:35.369Z,10.23
2018-03-22T17:35:05.579Z,9.80
2018-03-22T17:37:34.663Z,9.37
2018-03-22T17:40:05.076Z,9.80
2018-03-22T17:42:35.466Z,8.10
2018-03-22T17:45:04.664Z,11.57
2018-03-22T17:47:34.453Z,10.67
2018-03-22T17:50:04.780Z,15.57
2018-03-22T17:52:34.259Z,20.00
2018-03-22T17:55:04.347Z,16.70
2018-03-22T17:57:33.384Z,16.77
2018-03-22T18:00:03.796Z,17.60
2018-03-22T18:02:33.401Z,15.40
2018-03-22T18:05:02.896Z,18.30
2018-03-22T18:07:32.680Z,16.13
2018-03-22T18:10:04.066Z,15.80
2018-03-22T18:12:33.187Z,19.43
2018-03-22T18:15:03.015Z,13.27
2018-03-22T18:17:32.454Z,12.37
2018-03-22T18:20:03.338Z,15.00
2018-03-22T18:22:32.300Z,17.70
2018-03-22T18:25:02.060Z,15.03
2018-03-22T18:27:35.060Z,13.70
2018-03-22T18:30:14.718Z,11.20
2018-03-22T18:32:51.237Z,13.37
2018-03-22T18:35:20.802Z,14.13
2018-03-22T18:37:49.735Z,15.20
2018-03-22T18:40:19.264Z,14.23
2018-03-22T18:42:48.127Z,14.80
2018-03-22T18:45:17.118Z,17.40
2018-03-22T18:47:46.275Z,15.10
2018-03-22T18:50:15.623Z,16.33
2018-03-22T18:52:45.520Z,19.47
2018-03-22T18:55:14.743Z,22.83
2018-03-22T18:57:43.770Z,18.10
2018-03-22T19:00:13.120Z,19.23
2018-03-22T19:02:42.476Z,18.30
2018-03-22T19:05:11.425Z,18.40
2018-03-22T19:07:40.351Z,23.40
2018-03-22T19:10:09.574Z,24.53
2018-03-22T19:12:39.301Z,24.37
2018-03-22T19:15:08.522Z,18.60
2018-03-22T19:17:37.525Z,22.63
2018-03-22T19:20:08.129Z,25.80
2018-03-22T19:22:37.120Z,17.37
2018-03-22T19:25:07.328Z,21.50
2018-03-22T19:27:36.223Z,21.33
2018-03-22T19:30:06.273Z,20.50
2018-03-22T19:32:36.214Z,21.07
2018-03-22T19:35:05.849Z,24.13
2018-03-22T19:37:34.766Z,23.47
2018-03-22T19:40:05.811Z,19.73
2018-03-22T19:42:34.771Z,21.60
2018-03-22T19:45:04.385Z,21.17
2018-03-22T19:47:33.559Z,20.53
2018-03-22T19:50:05.044Z,19.07
2018-03-22T19:52:34.010Z,17.13
2018-03-22T19:55:03.973Z,17.93
2018-03-22T19:57:33.029Z,21.03
2018-03-22T20:00:04.660Z,18.60
2018-03-22T20:02:33.682Z,22.40
2018-03-22T20:05:03.523Z,20.97
2018-03-22T20:07:32.821Z,24.03
2018-03-22T20:10:03.695Z,25.23
2018-03-22T20:12:32.628Z,19.97
2018-03-22T20:15:04.229Z,21.03
2018-03-22T20:17:33.272Z,21.20
2018-03-22T20:20:03.555Z,22.47
2018-03-22T20:22:32.833Z,22.07
2018-03-22T20:25:03.211Z,24.80
2018-03-22T20:27:32.211Z,21.37
2018-03-22T20:30:03.524Z,27.20
2018-03-22T20:32:32.406Z,22.60
2018-03-22T20:35:02.528Z,24.50
2018-03-22T20:37:31.920Z,26.17
2018-03-22T20:40:00.971Z,32.27
2018-03-22T20:42:31.036Z,28.10
2018-03-22T20:45:04.246Z,22.80
2018-03-22T20:47:34.535Z,24.30
2018-03-22T20:50:04.404Z,24.77
2018-03-22T20:52:33.794Z,24.83
2018-03-22T20:55:03.211Z,28.43
2018-03-22T20:57:32.147Z,28.50
2018-03-22T21:00:03.189Z,24.90
2018-03-22T21:02:32.211Z,27.17
2018-03-22T21:05:01.780Z,27.40
2018-03-22T21:07:31.025Z,27.37
2018-03-22T21:09:59.924Z,27.93
2018-03-22T21:12:28.851Z,25.30
2018-03-22T21:14:57.766Z,26.30
2018-03-22T21:17:26.921Z,26.27
2018-03-22T21:19:56.135Z,31.03
2018-03-22T21:22:25.523Z,31.37
2018-03-22T21:24:54.387Z,29.33
2018-03-22T21:27:24.382Z,29.77
2018-03-22T21:29:53.275Z,30.73
2018-03-22T21:32:22.135Z,32.83
2018-03-22T21:34:51.550Z,38.33
2018-03-22T21:37:21.337Z,40.23
2018-03-22T21:39:52.231Z,38.03
2018-03-22T21:42:23.132Z,31.20
2018-03-22T21:44:53.399Z,37.87
2018-03-22T21:47:34.660Z,38.80
2018-03-22T21:50:05.550Z,37.40
2018-03-22T21:52:45.956Z,37.43
2018-03-22T21:55:15.848Z,37.17
2018-03-22T21:57:45.185Z,43.27
2018-03-22T22:00:14.752Z,37.60
2018-03-22T22:02:44.484Z,39.93
2018-03-22T22:05:14.534Z,45.93
2018-03-22T22:07:44.589Z,45.90
2018-03-22T22:10:14.084Z,43.90
2018-03-22T22:12:43.847Z,43.03
2018-03-22T22:15:13.436Z,42.80
2018-03-22T22:17:42.920Z,45.60
2018-03-22T22:20:12.634Z,43.73
2018-03-22T22:22:42.006Z,47.67
2018-03-22T22:25:11.359Z,48.60
2018-03-22T22:27:40.672Z,53.13
2018-03-22T22:30:09.593Z,48.60
2018-03-22T22:32:38.485Z,47.10
2018-03-22T22:35:07.810Z,41.47
2018-03-22T22:37:36.761Z,46.80
2018-03-22T22:40:05.740Z,49.93
2018-03-22T22:42:35.174Z,47.73
2018-03-22T22:45:05.017Z,45.77
2018-03-22T22:47:33.964Z,47.43
2018-03-22T22:50:03.986Z,49.70
2018-03-22T22:52:32.866Z,50.20
2018-03-22T22:55:02.180Z,57.33
2018-03-22T22:57:31.566Z,47.80
2018-03-22T23:00:02.723Z,50.03
2018-03-22T23:02:31.815Z,48.77
2018-03-22T23:05:01.903Z,44.27
2018-03-22T23:07:30.856Z,46.23
2018-03-22T23:09:59.925Z,53.97
2018-03-22T23:12:29.304Z,43.97
2018-03-22T23:14:58.205Z,45.17
2018-03-22T23:17:27.113Z,46.60
2018-03-22T23:19:56.404Z,48.70
2018-03-22T23:22:25.311Z,51.27
2018-03-22T23:24:54.163Z,51.47
2018-03-22T23:27:23.049Z,46.60
2018-03-22T23:29:51.958Z,46.53
2018-03-22T23:32:21.334Z,46.00
2018-03-22T23:34:50.259Z,46.40
2018-03-22T23:37:19.133Z,51.40
2018-03-22T23:39:48.008Z,45.90
2018-03-22T23:42:16.907Z,44.07
2018-03-22T23:44:46.631Z,53.63
2018-03-22T23:47:15.755Z,44.73
2018-03-22T23:49:44.672Z,48.17
2018-03-22T23:52:14.260Z,40.43
2018-03-22T23:54:43.171Z,47.10
2018-03-22T23:57:12.087Z,44.00
2018-03-22T23:59:41.867Z,44.63
